Time;durP1;ratioP1;P1;durP2;ratioP2;P2;SDS_P1;SDS_P2;PMS_P1;PMS_P2;Temp;Humidity;BMP_temperature;BMP_pressure;BME280_temperature;BME280_humidity;BME280_pressure;Samples;Min_cycle;Max_cycle;Signal;HPM_P1;HPM_P2
2022/09/11 00:01:41;;;;;;;22.67;15.73;;;15.60;99.90;;;;;;5081436;28;20201;-63
2022/09/11 00:04:11;;;;;;;23.47;14.83;;;15.50;99.90;;;;;;5077352;28;20194;-63
2022/09/11 00:06:42;;;;;;;25.83;16.47;;;15.50;99.90;;;;;;5075655;28;20201;-63
2022/09/11 00:09:10;;;;;;;22.50;15.20;;;15.40;99.90;;;;;;5076993;28;20267;-63
2022/09/11 00:11:41;;;;;;;26.80;17.40;;;15.40;99.90;;;;;;5076642;28;20199;-63
2022/09/11 00:14:12;;;;;;;28.47;16.60;;;15.40;99.90;;;;;;5075944;28;20214;-63
2022/09/11 00:16:45;;;;;;;20.87;15.47;;;15.30;99.90;;;;;;5076844;28;20280;-63
2022/09/11 00:19:17;;;;;;;23.37;15.80;;;15.20;99.90;;;;;;5076798;28;20210;-63
2022/09/11 00:21:48;;;;;;;27.20;15.30;;;15.20;99.90;;;;;;5075229;28;20197;-63
2022/09/11 00:24:16;;;;;;;25.27;14.87;;;15.10;99.90;;;;;;5076662;28;20520;-63
2022/09/11 00:26:46;;;;;;;20.83;14.70;;;15.10;99.90;;;;;;5076395;28;20656;-63
2022/09/11 00:29:15;;;;;;;22.23;14.33;;;15.00;99.90;;;;;;5076320;28;20186;-63
2022/09/11 00:31:44;;;;;;;22.63;16.30;;;14.90;99.90;;;;;;5076551;28;20218;-63
2022/09/11 00:34:12;;;;;;;21.73;15.43;;;14.90;99.90;;;;;;5076212;28;20273;-63
2022/09/11 00:36:42;;;;;;;25.40;14.97;;;14.90;99.90;;;;;;5076754;28;20193;-63
2022/09/11 00:39:13;;;;;;;21.70;15.57;;;14.80;99.90;;;;;;5074886;28;20712;-63
2022/09/11 00:41:45;;;;;;;21.13;14.63;;;14.80;99.90;;;;;;5076360;28;20266;-63
2022/09/11 00:44:50;;;;;;;23.73;15.40;;;14.70;99.90;;;;;;5076271;28;20643;-63
2022/09/11 00:47:20;;;;;;;25.93;16.13;;;14.70;99.90;;;;;;5076272;28;20185;-63
2022/09/11 00:49:53;;;;;;;26.07;16.07;;;14.70;99.90;;;;;;5074934;28;20193;-63
2022/09/11 00:52:28;;;;;;;24.60;15.60;;;14.60;99.90;;;;;;5075056;28;20239;-63
2022/09/11 00:55:00;;;;;;;24.40;15.47;;;14.60;99.90;;;;;;5076580;28;20181;-63
2022/09/11 00:57:35;;;;;;;23.57;15.33;;;14.60;99.90;;;;;;5076194;28;20192;-63
2022/09/11 01:00:06;;;;;;;31.10;17.97;;;14.50;99.90;;;;;;5075367;28;20262;-63
2022/09/11 01:02:38;;;;;;;34.07;18.70;;;14.50;99.90;;;;;;5076272;28;20212;-63
2022/09/11 01:05:07;;;;;;;27.37;17.03;;;14.60;99.90;;;;;;5074796;28;20196;-63
2022/09/11 01:08:06;;;;;;;25.07;17.50;;;14.60;99.90;;;;;;5075758;28;20186;-63
2022/09/11 01:10:45;;;;;;;27.57;17.03;;;14.50;99.90;;;;;;5074474;28;20234;-63
2022/09/11 01:13:28;;;;;;;32.80;18.37;;;14.60;99.90;;;;;;5075578;28;20208;-63
2022/09/11 01:16:02;;;;;;;32.20;18.53;;;14.50;99.90;;;;;;5074350;28;20269;-63
2022/09/11 01:18:37;;;;;;;32.90;18.97;;;14.50;99.90;;;;;;5075719;28;20193;-63
2022/09/11 01:21:28;;;;;;;25.27;17.97;;;14.50;99.90;;;;;;5075985;28;20212;-63
2022/09/11 01:24:15;;;;;;;29.30;17.20;;;14.50;99.90;;;;;;5075949;28;20192;-63
2022/09/11 01:26:57;;;;;;;33.27;16.97;;;14.40;99.90;;;;;;5075180;28;20199;-63
2022/09/11 01:29:33;;;;;;;29.23;17.47;;;14.30;99.90;;;;;;5075610;28;20232;-63
2022/09/11 01:32:10;;;;;;;32.43;17.40;;;14.30;99.90;;;;;;5057288;28;20626;-63
2022/09/11 01:34:47;;;;;;;28.60;17.73;;;14.30;99.90;;;;;;5073923;28;20192;-63
2022/09/11 01:37:22;;;;;;;29.07;17.60;;;14.20;99.90;;;;;;5074218;28;20187;-63
2022/09/11 01:39:58;;;;;;;30.70;17.60;;;14.20;99.90;;;;;;5073927;28;20208;-63
2022/09/11 01:42:31;;;;;;;31.47;17.90;;;14.20;99.90;;;;;;5068282;28;20197;-63
2022/09/11 01:45:05;;;;;;;26.53;17.03;;;14.20;99.90;;;;;;5057361;28;20279;-63
2022/09/11 01:47:35;;;;;;;22.73;16.83;;;14.10;99.90;;;;;;5075013;28;20257;-63
2022/09/11 01:50:06;;;;;;;25.97;16.87;;;14.10;99.90;;;;;;5075408;28;20185;-63
2022/09/11 01:52:39;;;;;;;31.70;18.17;;;14.10;99.90;;;;;;5075177;28;20196;-63
2022/09/11 01:55:13;;;;;;;32.97;18.67;;;14.00;99.90;;;;;;5073733;28;20193;-63
2022/09/11 01:57:45;;;;;;;29.40;18.90;;;14.00;99.90;;;;;;5075056;28;20215;-62
2022/09/11 02:00:15;;;;;;;29.43;18.30;;;14.00;99.90;;;;;;5073791;28;20208;-63
2022/09/11 02:02:49;;;;;;;32.13;17.57;;;14.00;99.90;;;;;;5075046;28;20539;-63
2022/09/11 02:05:23;;;;;;;26.23;16.47;;;13.90;99.90;;;;;;5074647;28;20543;-63
2022/09/11 02:07:57;;;;;;;24.13;16.50;;;13.90;99.90;;;;;;5074589;28;20196;-63
2022/09/11 02:10:30;;;;;;;25.97;16.70;;;13.90;99.90;;;;;;5056413;28;20250;-63
2022/09/11 02:13:05;;;;;;;34.03;19.43;;;13.90;99.90;;;;;;5075031;28;20212;-62
2022/09/11 02:15:42;;;;;;;29.50;17.80;;;13.90;99.90;;;;;;5076701;28;20377;-63
2022/09/11 02:18:19;;;;;;;31.07;17.73;;;13.90;99.90;;;;;;5094641;28;20191;-63
2022/09/11 02:20:47;;;;;;;22.80;16.60;;;13.90;99.90;;;;;;5094657;28;20211;-63
2022/09/11 02:23:16;;;;;;;26.10;17.50;;;13.90;99.90;;;;;;5081862;28;20642;-63
2022/09/11 02:25:46;;;;;;;27.90;18.20;;;13.80;99.90;;;;;;5074600;28;20275;-63
2022/09/11 02:28:15;;;;;;;25.80;17.07;;;13.80;99.90;;;;;;5073025;28;20196;-63
2022/09/11 02:30:46;;;;;;;28.67;18.17;;;13.80;99.90;;;;;;5073137;28;20195;-63
2022/09/11 02:33:31;;;;;;;24.00;16.73;;;13.70;99.90;;;;;;5088692;28;20281;-63
2022/09/11 02:36:21;;;;;;;32.00;18.90;;;13.70;99.90;;;;;;5054461;28;20275;-62
2022/09/11 02:39:01;;;;;;;28.70;18.27;;;13.70;99.90;;;;;;5054102;28;20200;-63
2022/09/11 02:41:38;;;;;;;28.23;17.43;;;13.80;99.90;;;;;;5053821;28;20208;-62
2022/09/11 02:44:15;;;;;;;25.97;17.27;;;13.70;99.90;;;;;;5065079;28;20258;-63
2022/09/11 02:46:58;;;;;;;31.10;19.40;;;13.60;99.90;;;;;;5074243;28;20182;-63
2022/09/11 02:49:39;;;;;;;35.23;18.97;;;13.60;99.90;;;;;;5073653;28;20199;-62
2022/09/11 02:52:17;;;;;;;30.00;18.73;;;13.60;99.90;;;;;;5073807;28;20196;-63
2022/09/11 02:54:53;;;;;;;28.47;18.40;;;13.60;99.90;;;;;;5073120;28;20176;-62
2022/09/11 02:57:29;;;;;;;28.87;18.13;;;13.50;99.90;;;;;;5072454;28;20184;-62
2022/09/11 03:00:00;;;;;;;28.60;17.57;;;13.50;99.90;;;;;;5073845;28;20191;-63
2022/09/11 03:02:36;;;;;;;27.77;18.00;;;13.50;99.90;;;;;;5073535;28;20524;-63
2022/09/11 03:05:05;;;;;;;29.97;18.07;;;13.40;99.90;;;;;;5073858;28;20622;-63
2022/09/11 03:07:33;;;;;;;31.93;18.07;;;13.40;99.90;;;;;;5073764;28;20188;-62
2022/09/11 03:10:02;;;;;;;31.93;19.23;;;13.40;99.90;;;;;;5073199;28;20263;-63
2022/09/11 03:12:30;;;;;;;32.03;18.80;;;13.50;99.90;;;;;;5073600;28;20220;-63
2022/09/11 03:14:59;;;;;;;28.80;19.13;;;13.50;99.90;;;;;;5073347;28;20655;-62
2022/09/11 03:17:27;;;;;;;32.37;20.03;;;13.50;99.90;;;;;;5073159;28;20207;-63
2022/09/11 03:19:57;;;;;;;34.10;19.87;;;13.40;99.90;;;;;;5073525;28;20199;-63
2022/09/11 03:22:25;;;;;;;37.13;21.17;;;13.40;99.90;;;;;;5073427;28;20212;-63
2022/09/11 03:24:53;;;;;;;36.27;20.70;;;13.40;99.90;;;;;;5073530;28;20188;-63
2022/09/11 03:27:22;;;;;;;31.00;20.87;;;13.40;99.90;;;;;;5073405;28;20192;-63
2022/09/11 03:29:50;;;;;;;30.57;20.13;;;13.40;99.90;;;;;;5072092;28;20223;-63
2022/09/11 03:32:20;;;;;;;31.03;18.83;;;13.40;99.90;;;;;;5072846;28;20250;-63
2022/09/11 03:34:48;;;;;;;33.30;19.60;;;13.30;99.90;;;;;;5054856;28;20511;-63
2022/09/11 03:37:17;;;;;;;34.10;21.73;;;13.30;99.90;;;;;;5072470;28;20196;-63
2022/09/11 03:39:47;;;;;;;34.67;22.13;;;13.40;99.90;;;;;;5092740;28;20277;-63
2022/09/11 03:42:15;;;;;;;40.57;22.67;;;13.40;99.90;;;;;;5078656;28;20300;-63
2022/09/11 03:44:44;;;;;;;36.60;21.37;;;13.40;99.90;;;;;;5068165;28;20283;-63
2022/09/11 03:47:12;;;;;;;36.93;22.17;;;13.40;99.90;;;;;;5053060;28;20193;-62
2022/09/11 03:49:44;;;;;;;40.50;23.67;;;13.40;99.90;;;;;;5053440;28;20197;-62
2022/09/11 03:52:12;;;;;;;37.07;22.50;;;13.40;99.90;;;;;;5053373;28;20185;-63
2022/09/11 03:54:41;;;;;;;40.03;23.23;;;13.40;99.90;;;;;;5053036;28;20185;-63
2022/09/11 03:57:10;;;;;;;38.13;23.03;;;13.40;99.90;;;;;;5052155;28;20294;-63
2022/09/11 03:59:38;;;;;;;47.13;25.10;;;13.40;99.90;;;;;;5053175;28;20197;-62
2022/09/11 04:02:07;;;;;;;45.67;26.23;;;13.50;99.90;;;;;;5079468;28;20226;-63
2022/09/11 04:04:35;;;;;;;49.77;26.33;;;13.50;99.90;;;;;;5072295;28;20699;-63
2022/09/11 04:07:04;;;;;;;47.97;25.67;;;13.50;99.90;;;;;;5072621;28;20202;-62
2022/09/11 04:09:32;;;;;;;44.23;24.93;;;13.50;99.90;;;;;;5072563;28;20716;-62
2022/09/11 04:12:02;;;;;;;46.60;26.60;;;13.60;99.90;;;;;;5073027;28;20228;-62
2022/09/11 04:14:31;;;;;;;46.60;26.30;;;13.60;99.90;;;;;;5071643;28;20279;-63
2022/09/11 04:16:59;;;;;;;44.70;26.00;;;13.60;99.90;;;;;;5071709;28;20512;-63
2022/09/11 04:19:29;;;;;;;44.37;25.87;;;13.50;99.90;;;;;;5072963;28;20235;-63
2022/09/11 04:21:57;;;;;;;48.97;26.37;;;13.50;99.90;;;;;;5072469;28;20212;-62
2022/09/11 04:24:25;;;;;;;48.20;26.37;;;13.50;99.90;;;;;;5051656;28;20193;-62
2022/09/11 04:26:54;;;;;;;51.03;26.37;;;13.50;99.90;;;;;;5052995;28;20196;-62
2022/09/11 04:29:29;;;;;;;52.43;26.83;;;13.50;99.90;;;;;;5053255;28;20188;-62
2022/09/11 04:31:57;;;;;;;59.20;26.40;;;13.50;99.90;;;;;;5072395;28;20224;-63
2022/09/11 04:34:26;;;;;;;53.77;25.33;;;13.50;99.90;;;;;;5072378;28;20344;-63
2022/09/11 04:36:55;;;;;;;47.73;27.77;;;13.50;99.90;;;;;;5072172;28;20200;-62
2022/09/11 04:39:23;;;;;;;47.97;26.00;;;13.50;99.90;;;;;;5071198;28;20282;-62
2022/09/11 04:41:53;;;;;;;38.93;22.87;;;13.40;99.90;;;;;;5072469;28;20218;-62
2022/09/11 04:44:21;;;;;;;35.83;21.53;;;13.40;99.90;;;;;;5072782;28;20199;-63
2022/09/11 04:46:51;;;;;;;35.67;20.87;;;13.30;99.90;;;;;;5074941;28;20200;-63
2022/09/11 04:49:19;;;;;;;40.40;21.63;;;13.20;99.90;;;;;;5076474;28;20539;-62
2022/09/11 04:51:47;;;;;;;40.27;21.63;;;13.10;99.90;;;;;;5094544;28;20191;-63
2022/09/11 04:54:19;;;;;;;33.17;20.50;;;13.10;99.90;;;;;;5083856;28;20206;-62
2022/09/11 04:56:48;;;;;;;44.20;23.30;;;13.00;99.90;;;;;;5096311;28;20184;-62
2022/09/11 04:59:19;;;;;;;38.77;21.77;;;13.00;99.90;;;;;;5078606;28;20200;-62
2022/09/11 05:01:48;;;;;;;34.87;22.43;;;13.00;99.90;;;;;;5074630;28;20307;-62
2022/09/11 05:04:18;;;;;;;38.60;23.57;;;13.00;99.90;;;;;;5096244;28;20202;-62
2022/09/11 05:06:52;;;;;;;40.57;23.57;;;13.00;99.90;;;;;;5094922;28;20290;-63
2022/09/11 05:09:21;;;;;;;45.80;23.80;;;13.00;99.90;;;;;;5081410;28;20192;-62
2022/09/11 05:12:27;;;;;;;40.37;24.07;;;13.00;99.90;;;;;;5075803;28;20195;-63
2022/09/11 05:14:58;;;;;;;47.30;24.83;;;13.00;99.90;;;;;;5095245;28;20195;-62
2022/09/11 05:17:26;;;;;;;45.27;25.90;;;13.00;99.90;;;;;;5089247;28;20253;-62
2022/09/11 05:19:57;;;;;;;49.60;26.87;;;13.00;99.90;;;;;;5091035;28;20229;-62
2022/09/11 05:22:26;;;;;;;44.00;25.03;;;13.00;99.90;;;;;;5074222;28;20210;-62
2022/09/11 05:24:54;;;;;;;47.57;25.93;;;13.00;99.90;;;;;;5075418;28;20203;-63
2022/09/11 05:27:23;;;;;;;45.43;25.47;;;13.00;99.90;;;;;;5075305;28;20192;-62
2022/09/11 05:30:11;;;;;;;44.33;23.27;;;13.00;99.90;;;;;;5073706;28;20282;-63
2022/09/11 05:32:40;;;;;;;45.03;23.30;;;13.00;99.90;;;;;;5085474;28;20183;-62
2022/09/11 05:35:10;;;;;;;42.83;23.47;;;12.90;99.90;;;;;;5095715;28;20703;-62
2022/09/11 05:37:39;;;;;;;38.40;21.73;;;12.90;99.90;;;;;;5094757;28;20195;-62
2022/09/11 05:40:08;;;;;;;35.50;20.23;;;12.90;99.90;;;;;;5074440;28;20196;-62
2022/09/11 05:42:42;;;;;;;35.63;20.90;;;12.90;99.90;;;;;;5057010;28;20216;-62
2022/09/11 05:48:59;;;;;;;34.47;19.43;;;12.90;99.90;;;;;;5090773;28;20167;-62
2022/09/11 05:51:34;;;;;;;36.60;20.10;;;12.90;99.90;;;;;;5092887;28;20191;-62
2022/09/11 05:54:03;;;;;;;28.63;18.87;;;12.90;99.90;;;;;;5074970;28;20202;-63
2022/09/11 05:56:37;;;;;;;29.10;19.07;;;12.90;99.90;;;;;;5074357;28;20531;-62
2022/09/11 05:59:12;;;;;;;28.93;18.53;;;12.90;99.90;;;;;;5075288;28;20192;-62
2022/09/11 06:01:41;;;;;;;30.30;18.97;;;12.90;99.90;;;;;;5073561;28;20202;-62
2022/09/11 06:04:11;;;;;;;30.90;19.13;;;13.00;99.90;;;;;;5074849;28;20219;-62
2022/09/11 06:06:40;;;;;;;27.43;19.53;;;13.00;99.90;;;;;;5074796;28;20188;-62
2022/09/11 06:09:08;;;;;;;28.07;19.87;;;13.00;99.90;;;;;;5074413;28;20650;-62
2022/09/11 06:11:37;;;;;;;31.70;20.17;;;13.10;99.90;;;;;;5073471;28;20195;-62
2022/09/11 06:14:05;;;;;;;31.23;19.30;;;13.10;99.90;;;;;;5074496;28;20212;-62
2022/09/11 06:16:34;;;;;;;31.93;18.87;;;13.20;99.90;;;;;;5074689;28;20579;-62
2022/09/11 06:19:02;;;;;;;29.57;19.03;;;13.20;99.90;;;;;;5074821;28;20224;-62
2022/09/11 06:21:30;;;;;;;24.90;17.30;;;13.30;99.90;;;;;;5073354;28;20194;-62
2022/09/11 06:24:00;;;;;;;27.47;17.97;;;13.40;99.90;;;;;;5074322;28;20216;-62
2022/09/11 06:26:29;;;;;;;23.23;16.73;;;13.40;99.90;;;;;;5074177;28;20218;-62
2022/09/11 06:28:57;;;;;;;25.63;17.87;;;13.50;99.90;;;;;;5074537;28;20199;-62
2022/09/11 06:31:27;;;;;;;24.90;18.40;;;13.50;99.90;;;;;;5074415;28;20188;-62
2022/09/11 06:33:55;;;;;;;27.90;19.17;;;13.60;99.90;;;;;;5073042;28;20184;-62
2022/09/11 06:36:26;;;;;;;26.03;18.70;;;13.80;99.90;;;;;;5106607;28;20654;-62
2022/09/11 06:38:56;;;;;;;25.37;19.47;;;13.90;99.90;;;;;;5072879;28;20246;-63
2022/09/11 06:41:27;;;;;;;25.97;18.77;;;14.10;99.90;;;;;;5073558;28;20199;-63
2022/09/11 06:43:55;;;;;;;25.17;18.83;;;14.30;99.90;;;;;;5073711;28;20303;-63
2022/09/11 06:46:25;;;;;;;28.40;19.97;;;14.40;99.90;;;;;;5073644;28;20196;-62
2022/09/11 06:48:56;;;;;;;29.37;19.03;;;14.60;99.90;;;;;;5074122;28;20646;-63
2022/09/11 06:51:25;;;;;;;25.70;18.93;;;14.70;99.90;;;;;;5073379;28;20181;-63
2022/09/11 06:53:56;;;;;;;27.97;20.00;;;14.90;99.90;;;;;;5073779;28;20197;-62
2022/09/11 06:56:26;;;;;;;27.80;19.80;;;15.10;99.90;;;;;;5073400;28;20239;-62
2022/09/11 06:58:55;;;;;;;25.70;19.20;;;15.30;99.90;;;;;;5074077;28;20658;-63
2022/09/11 07:01:24;;;;;;;23.83;18.97;;;15.40;99.90;;;;;;5073375;28;20195;-63
2022/09/11 07:03:54;;;;;;;23.50;18.47;;;15.60;99.90;;;;;;5073496;28;20209;-63
2022/09/11 07:06:24;;;;;;;24.57;17.87;;;15.80;99.90;;;;;;5073533;28;20212;-62
2022/09/11 07:08:59;;;;;;;23.63;18.47;;;16.00;99.90;;;;;;5071567;28;20550;-63
2022/09/11 07:11:31;;;;;;;24.50;18.13;;;16.20;99.90;;;;;;5071935;28;20222;-62
2022/09/11 07:14:04;;;;;;;19.07;16.47;;;16.40;99.90;;;;;;5073191;28;20209;-63
2022/09/11 07:16:33;;;;;;;18.03;15.17;;;16.40;99.90;;;;;;5072157;28;20627;-63
2022/09/11 07:19:02;;;;;;;18.83;16.30;;;16.30;99.90;;;;;;5072029;28;20205;-62
2022/09/11 07:21:33;;;;;;;25.77;18.70;;;16.10;99.90;;;;;;5059894;28;20198;-62
2022/09/11 07:24:02;;;;;;;21.50;17.33;;;15.90;99.90;;;;;;5053207;28;20553;-63
2022/09/11 07:26:34;;;;;;;25.63;18.30;;;15.90;99.90;;;;;;5053554;28;20202;-63
2022/09/11 07:29:02;;;;;;;23.33;17.73;;;15.90;99.90;;;;;;5065613;28;20193;-63
2022/09/11 07:31:33;;;;;;;21.83;17.70;;;15.90;99.90;;;;;;5073324;28;20198;-63
2022/09/11 07:34:02;;;;;;;23.27;18.30;;;16.10;99.90;;;;;;5073576;28;20276;-63
2022/09/11 07:36:32;;;;;;;23.23;17.63;;;16.30;99.90;;;;;;5073148;28;20194;-63
2022/09/11 07:39:02;;;;;;;22.17;17.83;;;16.50;99.90;;;;;;5073591;28;20197;-63
2022/09/11 07:41:33;;;;;;;21.53;17.90;;;16.70;99.90;;;;;;5055538;28;20198;-63
2022/09/11 07:44:03;;;;;;;22.27;17.57;;;16.90;99.90;;;;;;5085432;28;20716;-63
2022/09/11 07:46:31;;;;;;;21.63;17.57;;;16.80;99.90;;;;;;5053351;28;20667;-63
2022/09/11 07:49:00;;;;;;;23.07;17.47;;;16.90;99.90;;;;;;5063588;28;20200;-63
2022/09/11 07:51:29;;;;;;;20.53;17.23;;;16.80;99.90;;;;;;5072065;28;20191;-63
2022/09/11 07:53:58;;;;;;;24.23;16.80;;;16.70;99.90;;;;;;5073243;28;20195;-63
2022/09/11 07:56:29;;;;;;;22.30;17.67;;;16.90;99.90;;;;;;5073104;28;20192;-63
2022/09/11 07:59:00;;;;;;;23.30;17.67;;;17.00;99.90;;;;;;5073406;28;20198;-63
2022/09/11 08:01:32;;;;;;;25.40;18.07;;;17.10;99.90;;;;;;5072098;28;20222;-63
2022/09/11 08:04:02;;;;;;;19.77;17.43;;;17.00;99.90;;;;;;5073153;28;20211;-63
2022/09/11 08:06:35;;;;;;;20.57;17.53;;;17.20;99.90;;;;;;5073001;28;20533;-63
2022/09/11 08:09:09;;;;;;;19.13;16.57;;;17.30;99.90;;;;;;5073036;28;20209;-63
2022/09/11 08:11:39;;;;;;;20.20;17.10;;;17.40;99.90;;;;;;5072806;28;20547;-63
2022/09/11 08:14:10;;;;;;;20.90;16.53;;;17.40;99.90;;;;;;5073225;28;20571;-63
2022/09/11 08:16:39;;;;;;;24.03;17.20;;;17.60;99.90;;;;;;5072919;28;20283;-63
2022/09/11 08:19:09;;;;;;;19.80;17.60;;;17.80;99.90;;;;;;5071604;28;20195;-63
2022/09/11 08:21:37;;;;;;;21.53;16.27;;;17.90;99.90;;;;;;5076772;28;20196;-63
2022/09/11 08:24:06;;;;;;;19.63;16.70;;;17.90;99.90;;;;;;5076301;28;20208;-63
2022/09/11 08:26:36;;;;;;;19.90;16.83;;;17.90;99.90;;;;;;5076394;28;20188;-63
2022/09/11 08:29:05;;;;;;;20.00;17.40;;;18.10;99.90;;;;;;5076409;28;20192;-63
2022/09/11 08:31:35;;;;;;;18.87;16.87;;;18.00;99.90;;;;;;5076797;28;20193;-63
2022/09/11 08:34:03;;;;;;;21.43;17.17;;;18.10;99.90;;;;;;5077177;28;20250;-63
2022/09/11 08:36:31;;;;;;;21.63;16.70;;;18.30;99.90;;;;;;5075058;28;20184;-63
2022/09/11 08:39:02;;;;;;;19.93;17.40;;;18.50;99.90;;;;;;5076622;28;20196;-63
2022/09/11 08:41:41;;;;;;;19.30;16.13;;;18.70;99.90;;;;;;5076537;28;20195;-64
2022/09/11 08:44:21;;;;;;;20.37;17.07;;;18.80;99.90;;;;;;5091908;28;20218;-63
2022/09/11 08:46:54;;;;;;;20.30;15.40;;;19.00;99.90;;;;;;5076281;28;20651;-63
2022/09/11 08:49:26;;;;;;;22.60;17.63;;;19.00;99.90;;;;;;5076328;28;20184;-64
2022/09/11 08:51:58;;;;;;;20.47;17.70;;;19.10;99.90;;;;;;5076554;28;20196;-63
2022/09/11 08:54:31;;;;;;;22.20;17.77;;;19.10;99.90;;;;;;5076498;28;20179;-64
2022/09/11 08:57:10;;;;;;;21.13;17.90;;;19.10;99.90;;;;;;5076298;28;20180;-64
2022/09/11 08:59:56;;;;;;;21.60;18.63;;;19.20;99.90;;;;;;5076122;28;20237;-64
2022/09/11 09:02:57;;;;;;;22.80;19.20;;;19.50;99.90;;;;;;5075691;28;20215;-64
2022/09/11 09:05:32;;;;;;;25.60;19.30;;;19.50;99.90;;;;;;5061040;28;20240;-63
2022/09/11 09:08:17;;;;;;;24.77;20.00;;;19.40;99.90;;;;;;5075778;28;20209;-64
2022/09/11 09:10:53;;;;;;;23.67;19.43;;;19.50;99.90;;;;;;5092387;28;20235;-63
2022/09/11 09:13:36;;;;;;;22.80;19.13;;;19.80;99.90;;;;;;5096088;28;20209;-63
2022/09/11 09:16:15;;;;;;;24.30;19.23;;;19.70;99.90;;;;;;5096145;28;20191;-63
2022/09/11 09:18:50;;;;;;;21.97;18.87;;;19.90;99.90;;;;;;5095819;28;20191;-64
2022/09/11 09:21:26;;;;;;;21.20;17.97;;;20.10;99.90;;;;;;5095720;28;20190;-63
2022/09/11 09:23:56;;;;;;;24.90;18.63;;;20.30;99.90;;;;;;5095987;28;20191;-64
2022/09/11 09:26:38;;;;;;;23.60;18.07;;;20.50;99.90;;;;;;5095841;28;20196;-63
2022/09/11 09:29:10;;;;;;;22.63;17.40;;;20.60;99.90;;;;;;5095800;28;20227;-63
2022/09/11 09:31:40;;;;;;;19.67;17.57;;;20.70;99.90;;;;;;5094888;28;20188;-63
2022/09/11 09:34:16;;;;;;;20.07;17.97;;;20.60;99.90;;;;;;5095699;28;20183;-63
2022/09/11 09:36:52;;;;;;;22.57;17.80;;;20.60;99.90;;;;;;5094732;28;20188;-64
2022/09/11 09:39:21;;;;;;;21.07;17.17;;;20.70;99.90;;;;;;5095563;28;20199;-63
2022/09/11 09:42:12;;;;;;;19.07;16.90;;;20.80;99.90;;;;;;5094352;28;20204;-63
2022/09/11 09:44:55;;;;;;;23.70;17.57;;;20.90;99.90;;;;;;5095128;28;20717;-64
2022/09/11 09:47:25;;;;;;;17.97;16.07;;;21.10;99.90;;;;;;5095780;28;20177;-61
2022/09/11 09:49:57;;;;;;;18.83;15.73;;;21.30;99.90;;;;;;5081068;28;20201;-61
2022/09/11 09:52:27;;;;;;;17.83;16.03;;;21.30;99.90;;;;;;5074897;28;20207;-61
2022/09/11 09:54:59;;;;;;;19.80;15.43;;;21.60;99.90;;;;;;5074604;28;20190;-63
2022/09/11 09:57:31;;;;;;;17.83;15.10;;;21.70;99.90;;;;;;5074746;28;20220;-63
2022/09/11 10:00:05;;;;;;;18.10;14.90;;;21.90;99.90;;;;;;5072925;28;20192;-64
2022/09/11 10:02:39;;;;;;;16.93;14.20;;;22.00;99.90;;;;;;5074890;28;20223;-63
2022/09/11 10:05:23;;;;;;;17.80;15.83;;;22.10;99.90;;;;;;5053586;28;20208;-62
2022/09/11 10:07:54;;;;;;;13.70;12.13;;;22.30;99.90;;;;;;5054509;28;20177;-62
2022/09/11 10:10:25;;;;;;;14.47;12.83;;;22.50;99.90;;;;;;5073190;28;20236;-62
2022/09/11 10:12:55;;;;;;;16.80;11.67;;;22.80;99.90;;;;;;5074911;28;20215;-62
2022/09/11 10:15:47;;;;;;;12.50;11.27;;;23.00;99.90;;;;;;5074739;28;20193;-61
2022/09/11 10:18:23;;;;;;;13.00;11.07;;;23.10;99.90;;;;;;5073326;28;20186;-61
2022/09/11 10:20:53;;;;;;;16.00;13.73;;;23.30;99.90;;;;;;5074642;28;20206;-64
2022/09/11 10:23:24;;;;;;;15.77;12.60;;;23.50;99.90;;;;;;5072941;28;20192;-63
2022/09/11 10:25:53;;;;;;;15.27;13.30;;;23.50;99.90;;;;;;5073237;28;20208;-64
2022/09/11 10:28:30;;;;;;;17.83;15.70;;;23.80;99.90;;;;;;5072790;28;20195;-63
2022/09/11 10:31:01;;;;;;;13.80;11.52;;;24.00;99.90;;;;;;5073989;28;20300;-63
2022/09/11 10:33:33;;;;;;;14.30;12.82;;;24.00;99.90;;;;;;5074429;28;20229;-63
2022/09/11 10:36:06;;;;;;;12.27;9.95;;;24.10;99.90;;;;;;5074087;28;20194;-61
2022/09/11 10:38:38;;;;;;;14.02;9.77;;;24.70;99.90;;;;;;5074161;28;20258;-62
2022/09/11 10:41:18;;;;;;;10.18;8.90;;;24.60;99.90;;;;;;5073076;28;20224;-62
2022/09/11 10:43:52;;;;;;;11.02;8.57;;;24.80;99.90;;;;;;5074132;28;20195;-62
2022/09/11 10:46:42;;;;;;;8.95;8.15;;;24.70;99.90;;;;;;5074086;28;20214;-62
2022/09/11 10:49:19;;;;;;;11.73;10.27;;;24.90;99.90;;;;;;5066756;28;20280;-62
2022/09/11 10:52:17;;;;;;;11.52;10.20;;;24.80;99.90;;;;;;5073667;28;20187;-62
2022/09/11 10:54:57;;;;;;;9.55;8.65;;;25.00;99.90;;;;;;5073935;28;20195;-62
2022/09/11 10:57:30;;;;;;;10.43;8.77;;;25.20;99.90;;;;;;5073938;28;20238;-63
2022/09/11 11:00:05;;;;;;;11.70;9.60;;;25.70;99.90;;;;;;5073919;28;20181;-63
2022/09/11 11:02:37;;;;;;;11.98;10.45;;;25.80;99.90;;;;;;5062914;28;20196;-63
2022/09/11 11:05:12;;;;;;;10.70;9.70;;;25.80;99.90;;;;;;5053487;28;20221;-62
2022/09/11 11:08:14;;;;;;;10.13;9.20;;;25.70;99.90;;;;;;5053543;28;20194;-63
2022/09/11 11:11:02;;;;;;;12.77;11.25;;;26.00;99.90;;;;;;5052055;28;20710;-62
2022/09/11 11:13:46;;;;;;;12.80;11.10;;;26.00;99.90;;;;;;5072267;28;20235;-62
2022/09/11 11:16:40;;;;;;;12.95;10.95;;;25.80;99.90;;;;;;5072325;28;20195;-63
2022/09/11 11:19:34;;;;;;;11.00;10.00;;;25.70;99.90;;;;;;5073000;28;20649;-62
2022/09/11 11:22:12;;;;;;;9.32;8.43;;;25.60;99.90;;;;;;5061716;28;20514;-63
2022/09/11 11:24:59;;;;;;;11.07;10.00;;;25.30;99.90;;;;;;5073346;28;20197;-65
2022/09/11 11:27:55;;;;;;;13.77;10.03;;;25.10;99.90;;;;;;5073497;28;20189;-64
2022/09/11 11:30:30;;;;;;;10.90;8.33;;;25.10;99.90;;;;;;5062772;28;20231;-64
2022/09/11 11:33:21;;;;;;;10.03;9.03;;;25.40;99.90;;;;;;5071956;28;20192;-64
2022/09/11 11:36:01;;;;;;;10.33;9.10;;;25.80;99.90;;;;;;5059083;28;20276;-64
2022/09/11 11:38:38;;;;;;;8.80;8.00;;;25.80;99.90;;;;;;5073070;28;20196;-64
2022/09/11 11:41:14;;;;;;;8.57;7.60;;;25.80;99.90;;;;;;5067527;28;20778;-64
2022/09/11 11:43:45;;;;;;;9.77;8.77;;;25.80;99.90;;;;;;5087987;28;20207;-64
2022/09/11 11:46:18;;;;;;;8.83;7.70;;;25.70;99.90;;;;;;5073324;28;20220;-65
2022/09/11 11:48:52;;;;;;;12.50;8.17;;;25.70;99.90;;;;;;5073003;28;20664;-64
2022/09/11 11:51:27;;;;;;;7.63;7.03;;;25.80;99.90;;;;;;5073039;28;20677;-65
2022/09/11 11:54:01;;;;;;;7.70;6.90;;;26.00;99.90;;;;;;5073255;28;20191;-64
2022/09/11 11:56:39;;;;;;;6.57;6.10;;;25.80;99.90;;;;;;5077243;28;20654;-64
2022/09/11 11:59:15;;;;;;;8.02;7.43;;;25.80;99.90;;;;;;5074101;28;20208;-64
2022/09/11 12:01:48;;;;;;;7.63;6.93;;;25.90;99.90;;;;;;5076516;28;20188;-62
2022/09/11 12:04:27;;;;;;;6.13;5.63;;;25.90;99.90;;;;;;5070086;28;20217;-64
2022/09/11 12:06:55;;;;;;;9.00;5.77;;;26.20;99.90;;;;;;5057037;28;20220;-63
2022/09/11 12:09:24;;;;;;;5.43;5.13;;;26.10;99.90;;;;;;5076714;28;20196;-64
2022/09/11 12:11:56;;;;;;;4.60;4.30;;;26.10;99.90;;;;;;5076791;28;20207;-64
2022/09/11 12:14:27;;;;;;;6.03;5.40;;;26.00;99.90;;;;;;5075673;28;20198;-62
2022/09/11 12:16:56;;;;;;;7.40;4.95;;;25.70;99.90;;;;;;5075200;28;20184;-62
2022/09/11 12:19:25;;;;;;;5.93;4.47;;;25.70;99.90;;;;;;5058694;28;20193;-62
2022/09/11 12:22:13;;;;;;;4.53;4.22;;;25.90;99.90;;;;;;5076803;28;20197;-62
2022/09/11 12:24:53;;;;;;;4.72;4.32;;;26.00;99.90;;;;;;5076500;28;20197;-62
2022/09/11 12:28:10;;;;;;;4.93;4.53;;;26.20;99.90;;;;;;5076198;28;20219;-62
2022/09/11 12:30:58;;;;;;;6.10;4.38;;;26.40;99.90;;;;;;5014709;28;20190;-62
2022/09/11 12:33:53;;;;;;;4.13;3.60;;;26.50;99.90;;;;;;4998469;28;20531;-62
2022/09/11 12:36:28;;;;;;;4.45;3.70;;;26.60;99.90;;;;;;5070403;28;20196;-62
2022/09/11 12:39:00;;;;;;;4.18;3.83;;;26.50;99.90;;;;;;5076366;28;20200;-62
2022/09/11 12:41:30;;;;;;;3.50;3.40;;;26.40;99.90;;;;;;5076712;28;20195;-61
2022/09/11 12:44:00;;;;;;;3.40;3.10;;;26.40;99.90;;;;;;5076785;28;20289;-61
2022/09/11 12:47:12;;;;;;;7.03;4.43;;;26.20;99.90;;;;;;5076137;28;20218;-62
2022/09/11 12:49:42;;;;;;;3.27;3.07;;;26.10;99.90;;;;;;5075611;28;20196;-62
2022/09/11 12:52:35;;;;;;;4.10;3.70;;;26.20;99.90;;;;;;5076207;28;20185;-62
2022/09/11 12:55:27;;;;;;;3.17;2.97;;;26.30;99.90;;;;;;5075019;28;20211;-62
2022/09/11 12:58:01;;;;;;;4.00;3.80;;;26.10;99.90;;;;;;5074435;28;20195;-62
2022/09/11 13:00:37;;;;;;;3.83;3.53;;;25.90;99.90;;;;;;5060934;28;20200;-62
2022/09/11 13:03:08;;;;;;;3.90;3.60;;;25.70;99.90;;;;;;5075853;28;20651;-62
2022/09/11 13:05:39;;;;;;;5.83;3.20;;;25.80;99.90;;;;;;5074158;28;20192;-64
2022/09/11 13:08:16;;;;;;;3.20;3.03;;;25.90;99.90;;;;;;5075405;28;20180;-61